Terminal Aerodrome Forecast
Issued by NWS Jacksonville, FL

Home | Current Version | Previous Version | Text Only | Print | Product List | Glossary On
Versions: 1 2 3 4 5 6 7 8 9 10 11 12 13
000
FTUS42 KJAX 290540
TAFSSI
TAF
KSSI 290540Z 2906/3006 25008KT P6SM FEW040 SCT250
     FM291400 27008KT P6SM SCT035
     FM291900 16008KT P6SM SCT040=

USA.gov is the U.S. government's official web portal to all federal, state and local government web resources and services.